Time;durP1;ratioP1;P1;durP2;ratioP2;P2;SDS_P1;SDS_P2;PMS_P1;PMS_P2;Temp;Humidity;BMP_temperature;BMP_pressure;BME280_temperature;BME280_humidity;BME280_pressure;Samples;Min_cycle;Max_cycle;Signal;HPM_P1;HPM_P2
2022/01/19 05:08:59;;;;;;;37.53;15.73;;;;;;;-3.88;100.00;102109.66;6481379;26;884696;-78
2022/01/19 05:15:20;;;;;;;30.48;16.12;;;;;;;-3.90;100.00;102106.19;6606030;27;33858;-81
2022/01/19 05:18:23;;;;;;;37.92;14.75;;;;;;;-4.01;100.00;102110.88;6606483;27;34586;-81
2022/01/19 05:21:26;;;;;;;33.85;15.82;;;;;;;-4.04;100.00;102108.34;6607405;27;33865;-81
2022/01/19 05:24:30;;;;;;;39.35;16.15;;;;;;;-4.01;100.00;102110.03;6607023;27;34406;-81
2022/01/19 05:27:33;;;;;;;35.38;16.87;;;;;;;-4.08;100.00;102111.97;6607818;27;33650;-84
2022/01/19 05:30:37;;;;;;;40.50;18.48;;;;;;;-4.12;99.98;102113.81;6612011;27;34146;-85
2022/01/19 05:33:39;;;;;;;41.40;18.60;;;;;;;-4.16;99.82;102113.94;6612292;27;34013;-85
2022/01/19 05:36:43;;;;;;;43.67;19.23;;;;;;;-4.18;100.00;102116.62;6606941;27;33904;-85
2022/01/19 05:39:48;;;;;;;42.72;17.58;;;;;;;-4.22;100.00;102112.31;6607447;27;33845;-82
2022/01/19 05:42:51;;;;;;;38.63;16.30;;;;;;;-4.16;100.00;102113.94;6609052;27;35315;-81
2022/01/19 05:45:54;;;;;;;30.23;13.93;;;;;;;-4.02;100.00;102118.81;6615428;27;34576;-81
2022/01/19 05:48:57;;;;;;;32.40;14.10;;;;;;;-3.97;100.00;102109.91;6588099;27;33810;-81
2022/01/19 05:52:00;;;;;;;35.38;14.85;;;;;;;-3.85;100.00;102108.72;6606092;27;34522;-81
2022/01/19 05:55:03;;;;;;;31.95;13.65;;;;;;;-3.68;100.00;102105.59;6607268;27;33800;-81
2022/01/19 05:58:06;;;;;;;34.28;14.93;;;;;;;-3.71;100.00;102103.06;6623483;27;34847;-81
2022/01/19 06:01:09;;;;;;;36.72;13.93;;;;;;;-3.68;100.00;102102.97;6616254;27;35346;-81
2022/01/19 06:04:12;;;;;;;32.88;14.45;;;;;;;-3.48;100.00;102103.25;6623037;27;35332;-80
2022/01/19 06:07:16;;;;;;;34.05;14.50;;;;;;;-3.44;99.11;102110.12;6617547;27;34293;-81
2022/01/19 06:13:42;;;;;;;24.55;12.75;;;;;;;-3.57;99.75;102119.28;6607688;27;35011;-81
2022/01/19 06:16:45;;;;;;;35.88;15.98;;;;;;;-3.57;100.00;102114.03;6607811;27;35197;-81
2022/01/19 06:19:48;;;;;;;33.05;13.68;;;;;;;-3.54;100.00;102115.72;6607307;27;33419;-81
2022/01/19 06:22:52;;;;;;;27.67;14.27;;;;;;;-3.58;100.00;102117.56;6607657;27;34190;-81
2022/01/19 06:25:54;;;;;;;32.45;14.30;;;;;;;-3.60;100.00;102111.47;6608123;27;34296;-80
2022/01/19 06:28:57;;;;;;;31.23;14.15;;;;;;;-3.63;100.00;102114.22;6614621;27;34680;-80
2022/01/19 06:32:00;;;;;;;38.03;14.57;;;;;;;-3.67;100.00;102109.94;6621701;27;34405;-81
2022/01/19 06:35:04;;;;;;;32.05;14.27;;;;;;;-3.63;100.00;102108.09;6611528;27;34888;-81
2022/01/19 06:38:07;;;;;;;37.33;15.85;;;;;;;-3.66;100.00;102115.19;6614120;27;33764;-80
2022/01/19 06:41:11;;;;;;;33.05;16.08;;;;;;;-3.67;100.00;102105.53;6607380;27;33949;-81
2022/01/19 06:44:15;;;;;;;41.17;17.67;;;;;;;-3.63;100.00;102103.69;6607848;27;34785;-81
2022/01/19 06:47:18;;;;;;;42.05;16.67;;;;;;;-3.61;100.00;102106.28;6607007;27;33701;-81
2022/01/19 06:50:23;;;;;;;40.78;16.20;;;;;;;-3.64;100.00;102104.59;6606874;27;34146;-81
2022/01/19 06:53:26;;;;;;;48.55;18.45;;;;;;;-3.61;100.00;102104.50;6606529;27;33516;-81
2022/01/19 06:56:32;;;;;;;42.03;19.08;;;;;;;-3.61;100.00;102108.91;6605797;27;33833;-81
2022/01/19 06:59:54;;;;;;;39.90;19.15;;;;;;;-3.67;100.00;102100.28;6606095;27;34656;-81
2022/01/19 07:02:57;;;;;;;60.38;28.45;;;;;;;-3.63;100.00;102090.50;6606241;27;34595;-81
2022/01/19 07:06:04;;;;;;;74.03;34.75;;;;;;;-3.53;99.28;102080.59;6606001;27;34857;-80
2022/01/19 07:09:07;;;;;;;76.65;36.47;;;;;;;-3.54;97.80;102086.75;6606910;27;34632;-80
2022/01/19 07:12:12;;;;;;;73.25;35.55;;;;;;;-3.60;97.45;102090.44;6607386;26;33496;-84
2022/01/19 07:15:15;;;;;;;74.05;35.17;;;;;;;-3.64;98.14;102086.16;6606110;27;35365;-86
2022/01/19 07:18:19;;;;;;;63.40;31.70;;;;;;;-3.49;98.16;102090.13;6606346;27;34431;-85
2022/01/19 07:21:22;;;;;;;62.40;28.92;;;;;;;-3.39;97.24;102081.06;6606039;27;33769;-84
2022/01/19 07:24:25;;;;;;;58.97;26.62;;;;;;;-3.31;96.67;102094.81;6608391;27;34821;-81
2022/01/19 07:27:28;;;;;;;51.90;25.85;;;;;;;-3.19;96.10;102085.69;6609846;27;35378;-81
2022/01/19 07:30:32;;;;;;;39.70;20.23;;;;;;;-3.03;96.53;102075.53;6609328;27;34828;-80
2022/01/19 07:33:35;;;;;;;44.30;22.20;;;;;;;-2.79;95.36;102065.97;6610282;27;33640;-81
2022/01/19 07:36:39;;;;;;;48.50;21.33;;;;;;;-2.59;95.06;102073.22;6612156;27;35156;-80
2022/01/19 07:39:43;;;;;;;50.38;22.40;;;;;;;-2.46;94.40;102071.03;6618636;27;34174;-81
2022/01/19 07:42:47;;;;;;;49.15;22.55;;;;;;;-2.18;93.14;102063.87;6616522;27;35203;-81
2022/01/19 07:45:50;;;;;;;50.53;23.40;;;;;;;-1.91;91.63;102058.53;6614089;27;34334;-81
2022/01/19 07:49:03;;;;;;;44.20;21.30;;;;;;;-1.75;90.23;102050.91;6606097;27;34099;-81
2022/01/19 07:52:06;;;;;;;46.72;23.12;;;;;;;-1.60;89.85;102048.53;6611455;27;33586;-81
2022/01/19 07:55:10;;;;;;;48.28;20.37;;;;;;;-1.03;87.96;102042.78;6613944;27;34956;-81
2022/01/19 07:58:13;;;;;;;37.38;17.60;;;;;;;-0.73;85.30;102044.19;6606433;27;33927;-81
2022/01/19 08:01:18;;;;;;;38.25;18.77;;;;;;;-0.54;84.87;102051.34;6606429;27;34310;-81
2022/01/19 08:04:23;;;;;;;40.50;19.98;;;;;;;-0.46;83.76;102047.44;6606216;27;34470;-81
2022/01/19 08:07:26;;;;;;;37.05;18.05;;;;;;;-0.47;83.69;102039.56;6606611;27;33604;-81
2022/01/19 08:10:30;;;;;;;41.45;18.55;;;;;;;-0.37;83.83;102037.41;6605454;27;34584;-80
2022/01/19 08:13:33;;;;;;;38.72;17.15;;;;;;;-0.49;84.68;102047.59;6605357;26;34145;-81
2022/01/19 08:16:37;;;;;;;37.03;17.92;;;;;;;-0.42;84.17;102042.03;6606290;27;34010;-81
2022/01/19 08:19:40;;;;;;;38.80;16.00;;;;;;;-0.30;84.03;102034.41;6606330;27;33651;-80
2022/01/19 08:22:47;;;;;;;36.08;15.65;;;;;;;-0.13;83.33;102032.81;6606303;27;33793;-80
2022/01/19 08:25:54;;;;;;;38.88;15.52;;;;;;;0.08;81.17;102026.53;6606446;27;33686;-80
2022/01/19 08:28:57;;;;;;;29.70;15.25;;;;;;;0.14;80.95;102028.06;6613379;27;33890;-81
2022/01/19 08:32:00;;;;;;;28.40;15.38;;;;;;;0.15;79.90;102021.84;6606538;27;34075;-81
2022/01/19 08:35:25;;;;;;;31.30;14.80;;;;;;;0.27;80.24;102025.72;6606702;27;33823;-81
2022/01/19 08:38:30;;;;;;;32.60;15.02;;;;;;;0.12;79.93;102040.53;6608746;27;33487;-80
2022/01/19 08:41:34;;;;;;;30.45;14.80;;;;;;;-0.02;81.93;102035.84;6613356;27;34329;-81
2022/01/19 08:44:38;;;;;;;34.78;14.98;;;;;;;0.15;80.22;102024.50;6609125;27;34456;-81
2022/01/19 08:47:42;;;;;;;30.65;14.63;;;;;;;0.08;80.28;102031.84;6609001;27;35221;-81
2022/01/19 08:50:45;;;;;;;32.67;16.35;;;;;;;0.20;80.58;102023.31;6607197;27;34493;-81
2022/01/19 08:53:49;;;;;;;36.97;17.77;;;;;;;0.07;81.18;102022.19;6605239;27;34042;-85
2022/01/19 08:56:54;;;;;;;38.10;17.55;;;;;;;0.20;80.08;102015.38;6606804;27;34036;-86
2022/01/19 08:59:57;;;;;;;30.40;15.25;;;;;;;0.33;79.49;102015.69;6617155;27;34406;-85
2022/01/19 09:03:00;;;;;;;35.90;16.05;;;;;;;0.49;79.64;102005.22;6619399;27;34496;-83
2022/01/19 09:06:03;;;;;;;36.17;17.05;;;;;;;0.43;78.40;102001.06;6607851;27;34094;-81
2022/01/19 09:09:06;;;;;;;36.63;15.88;;;;;;;0.40;79.03;102003.00;6607558;27;36015;-82
2022/01/19 09:12:09;;;;;;;34.80;17.27;;;;;;;0.53;80.00;102009.47;6607032;27;34321;-81
2022/01/19 09:15:12;;;;;;;31.70;15.20;;;;;;;0.52;80.76;101999.75;6606308;26;34022;-83
2022/01/19 09:18:15;;;;;;;32.90;15.68;;;;;;;0.74;79.31;101999.59;6606174;27;33695;-82
2022/01/19 09:21:18;;;;;;;31.52;15.50;;;;;;;0.95;77.32;101999.50;6616010;27;34020;-82
2022/01/19 09:24:21;;;;;;;29.92;14.40;;;;;;;0.93;76.66;102001.34;6625257;27;34991;-82
2022/01/19 09:27:24;;;;;;;31.87;14.90;;;;;;;1.02;75.83;102001.75;6619353;27;34204;-82
2022/01/19 09:30:27;;;;;;;31.73;15.13;;;;;;;0.97;76.63;101994.97;6611986;27;34030;-82
2022/01/19 09:33:31;;;;;;;33.67;14.43;;;;;;;1.20;75.71;101992.03;6623869;27;34024;-83
2022/01/19 09:36:36;;;;;;;32.75;14.20;;;;;;;1.24;75.71;101992.72;6615131;27;33571;-82
2022/01/19 09:39:39;;;;;;;33.75;15.27;;;;;;;1.12;76.68;101997.72;6608523;27;33463;-84
2022/01/19 09:42:46;;;;;;;31.20;14.68;;;;;;;1.03;76.05;101987.56;6610489;27;35033;-83
2022/01/19 09:45:50;;;;;;;31.15;15.68;;;;;;;1.18;75.41;101977.97;6613589;27;34632;-82
2022/01/19 09:48:53;;;;;;;28.87;14.25;;;;;;;1.15;75.44;101977.28;6605755;27;33905;-82
2022/01/19 09:51:57;;;;;;;34.53;14.77;;;;;;;1.15;74.87;101969.31;6608294;27;33834;-82
2022/01/19 09:55:00;;;;;;;31.65;14.95;;;;;;;1.13;74.46;101972.91;6618691;27;34499;-82
2022/01/19 09:58:04;;;;;;;30.20;13.98;;;;;;;1.12;74.47;101957.06;6613618;27;34773;-82
2022/01/19 10:01:07;;;;;;;27.87;13.27;;;;;;;1.27;74.78;101944.81;6612045;27;34366;-82
2022/01/19 10:04:18;;;;;;;31.48;13.77;;;;;;;1.51;73.77;101940.88;6607155;27;34102;-82
2022/01/19 10:07:27;;;;;;;31.23;14.07;;;;;;;1.35;73.98;101932.88;6606964;27;33607;-82
2022/01/19 10:10:30;;;;;;;27.58;12.88;;;;;;;1.34;73.09;101930.28;6606136;27;34531;-82
2022/01/19 10:17:03;;;;;;;29.42;12.65;;;;;;;1.72;71.40;101903.50;6606363;26;33881;-82
2022/01/19 10:20:19;;;;;;;27.83;12.82;;;;;;;1.72;70.48;101900.84;6606279;27;33777;-82
2022/01/19 10:23:37;;;;;;;30.30;13.82;;;;;;;1.90;70.74;101893.66;6613397;27;34594;-82
2022/01/19 10:26:39;;;;;;;29.17;13.98;;;;;;;1.96;70.91;101883.59;6606726;27;34102;-86
2022/01/19 10:29:42;;;;;;;36.53;14.93;;;;;;;1.89;71.59;101870.72;6606174;27;34232;-83
2022/01/19 10:32:50;;;;;;;29.42;14.70;;;;;;;2.03;70.99;101871.66;6606975;27;33712;-83
2022/01/19 10:35:53;;;;;;;29.80;14.55;;;;;;;2.25;71.28;101866.00;6606719;27;34326;-82
2022/01/19 10:38:57;;;;;;;29.67;13.90;;;;;;;2.35;69.52;101861.00;6606084;27;34982;-82
2022/01/19 10:42:04;;;;;;;33.83;14.35;;;;;;;2.46;68.75;101849.78;6606564;27;33927;-82
2022/01/19 10:45:09;;;;;;;30.67;15.45;;;;;;;2.43;69.41;101841.97;6605844;27;33857;-82
2022/01/19 10:48:29;;;;;;;35.35;17.67;;;;;;;2.68;69.46;101828.94;6605054;27;33906;-80
2022/01/19 10:51:39;;;;;;;36.17;17.27;;;;;;;2.60;69.86;101831.19;6606908;27;33970;-81
2022/01/19 10:54:48;;;;;;;36.72;17.35;;;;;;;2.63;69.96;101820.41;6606601;27;35229;-81
2022/01/19 10:57:51;;;;;;;34.72;16.37;;;;;;;2.91;67.99;101811.59;6606362;27;34488;-80
2022/01/19 11:00:55;;;;;;;39.45;17.85;;;;;;;3.01;67.40;101808.38;6604868;27;34606;-80
2022/01/19 11:04:22;;;;;;;27.95;16.42;;;;;;;3.06;68.12;101799.16;6606862;27;34369;-81
2022/01/19 11:07:26;;;;;;;36.17;18.83;;;;;;;3.20;67.95;101793.00;6606721;27;33616;-81
2022/01/19 11:10:31;;;;;;;33.88;16.58;;;;;;;3.23;68.06;101792.81;6606865;27;33534;-81
2022/01/19 11:13:40;;;;;;;31.52;16.87;;;;;;;3.19;67.43;101793.97;6607468;27;33928;-80
2022/01/19 11:16:43;;;;;;;38.95;16.58;;;;;;;3.23;67.24;101776.84;6612100;26;33495;-81
2022/01/19 11:19:48;;;;;;;34.38;17.33;;;;;;;3.25;66.33;101766.97;6608036;27;34543;-81
2022/01/19 11:23:19;;;;;;;40.85;18.12;;;;;;;3.34;67.55;101758.38;6612126;27;34881;-81
2022/01/19 11:26:28;;;;;;;34.85;18.23;;;;;;;3.58;66.01;101755.13;6609672;27;34005;-84
2022/01/19 11:29:39;;;;;;;32.42;18.10;;;;;;;3.51;65.71;101751.13;6610345;27;33711;-80
2022/01/19 11:32:45;;;;;;;35.75;18.00;;;;;;;3.90;64.07;101753.00;6610912;27;33669;-81
2022/01/19 11:35:47;;;;;;;36.40;18.45;;;;;;;3.97;63.44;101737.47;6612261;27;33907;-81
2022/01/19 11:39:06;;;;;;;33.70;17.73;;;;;;;4.05;63.66;101729.84;6608103;27;35296;-81
2022/01/19 11:42:20;;;;;;;37.83;17.80;;;;;;;4.16;63.02;101731.78;6610435;27;33627;-81
2022/01/19 11:45:38;;;;;;;31.05;17.65;;;;;;;4.31;62.47;101720.94;6610157;27;34265;-80
2022/01/19 11:48:44;;;;;;;36.47;18.30;;;;;;;4.63;61.36;101701.88;6610408;27;33390;-80
2022/01/19 11:51:54;;;;;;;33.58;17.20;;;;;;;5.02;61.36;101700.00;6607420;27;33969;-80
2022/01/19 11:55:21;;;;;;;31.67;15.85;;;;;;;5.34;59.15;101708.37;6609062;27;34399;-81
2022/01/19 11:58:24;;;;;;;29.08;14.23;;;;;;;5.71;56.80;101700.34;6609383;27;34386;-81
2022/01/19 12:01:27;;;;;;;36.03;14.95;;;;;;;6.02;56.31;101682.03;6615293;27;36031;-80
2022/01/19 12:04:36;;;;;;;28.95;14.63;;;;;;;6.09;56.51;101673.44;6605906;27;34092;-80
2022/01/19 12:07:42;;;;;;;36.63;15.60;;;;;;;6.58;55.76;101666.09;6605510;27;33986;-80
2022/01/19 12:10:48;;;;;;;28.25;13.45;;;;;;;7.31;52.98;101666.56;6613183;27;34258;-81
2022/01/19 12:14:09;;;;;;;32.17;13.65;;;;;;;7.03;52.46;101650.06;6613088;27;33935;-82
2022/01/19 12:17:25;;;;;;;27.23;13.62;;;;;;;7.38;52.09;101660.59;6610624;27;34001;-86
2022/01/19 12:20:52;;;;;;;25.95;12.85;;;;;;;7.98;50.12;101660.97;6612776;27;34137;-80
2022/01/19 12:23:55;;;;;;;28.95;12.23;;;;;;;8.51;48.82;101647.53;6615108;27;34642;-80
2022/01/19 12:27:00;;;;;;;26.05;11.73;;;;;;;8.69;47.93;101645.06;6624890;27;33497;-80
2022/01/19 12:30:06;;;;;;;23.75;11.80;;;;;;;8.80;47.27;101644.97;6621650;27;34230;-80
2022/01/19 12:33:09;;;;;;;23.15;11.90;;;;;;;9.34;45.63;101642.03;6613372;27;33952;-80
2022/01/19 12:36:47;;;;;;;24.95;10.80;;;;;;;9.43;45.23;101627.75;6607302;27;34087;-80
2022/01/19 12:39:49;;;;;;;28.85;11.43;;;;;;;9.51;45.97;101617.16;6611069;27;34494;-81
2022/01/19 12:42:59;;;;;;;24.05;10.98;;;;;;;10.40;43.31;101607.00;6610467;27;33686;-81
2022/01/19 12:46:05;;;;;;;22.77;10.13;;;;;;;10.20;42.92;101600.78;6608544;27;34017;-81
2022/01/19 12:49:28;;;;;;;24.85;10.73;;;;;;;9.97;43.68;101594.03;6619657;27;33387;-81
2022/01/19 12:52:34;;;;;;;23.25;9.60;;;;;;;11.13;41.33;101590.91;6612072;27;34143;-82
2022/01/19 12:55:42;;;;;;;20.50;8.93;;;;;;;11.24;40.25;101591.72;6617059;27;33978;-80
2022/01/19 12:58:48;;;;;;;15.98;7.62;;;;;;;12.38;38.36;101595.38;6616755;27;33857;-81
2022/01/19 13:01:51;;;;;;;23.23;9.48;;;;;;;12.41;38.31;101576.16;6617972;27;35374;-81
2022/01/19 13:05:07;;;;;;;18.58;9.40;;;;;;;12.89;37.59;101577.38;6604930;27;33906;-84
2022/01/19 13:08:10;;;;;;;18.83;8.35;;;;;;;12.80;37.03;101572.09;6605865;27;34594;-81
2022/01/19 13:11:29;;;;;;;18.52;7.97;;;;;;;11.74;39.05;101564.19;6603909;27;34282;-81
2022/01/19 13:14:33;;;;;;;21.48;9.05;;;;;;;11.71;39.36;101551.03;6605313;27;34482;-81
2022/01/19 13:17:45;;;;;;;20.88;9.45;;;;;;;10.26;41.79;101544.69;6605707;27;34374;-81
2022/01/19 13:20:51;;;;;;;25.48;10.05;;;;;;;8.28;46.85;101544.84;6588480;27;34095;-81
2022/01/19 13:23:56;;;;;;;18.23;8.52;;;;;;;7.46;49.40;101548.28;6611918;27;33661;-81
2022/01/19 13:27:05;;;;;;;20.65;8.50;;;;;;;6.69;51.54;101547.53;6606634;27;33826;-81
2022/01/19 13:30:12;;;;;;;24.98;9.32;;;;;;;6.36;52.93;101549.25;6606275;27;34586;-81
2022/01/19 13:33:16;;;;;;;20.55;9.40;;;;;;;5.94;54.57;101545.44;6606923;27;33740;-81
2022/01/19 13:36:33;;;;;;;17.85;8.57;;;;;;;5.60;56.20;101538.16;6604969;27;34453;-81
2022/01/19 13:39:40;;;;;;;24.00;9.02;;;;;;;5.34;57.34;101525.94;6604967;27;33731;-81
2022/01/19 13:42:44;;;;;;;21.17;8.98;;;;;;;5.07;58.15;101539.53;6606221;27;34493;-81
2022/01/19 13:45:52;;;;;;;23.35;9.40;;;;;;;4.82;59.01;101524.47;6606877;27;33937;-81
2022/01/19 13:49:01;;;;;;;16.98;7.75;;;;;;;4.75;60.50;101532.09;6606625;27;34254;-81
2022/01/19 13:52:05;;;;;;;16.87;7.32;;;;;;;4.59;59.94;101532.31;6606652;27;33956;-81
2022/01/19 13:55:19;;;;;;;17.55;7.85;;;;;;;4.44;60.53;101528.94;6606436;27;34003;-81
2022/01/19 13:58:31;;;;;;;18.73;7.60;;;;;;;4.35;61.33;101526.09;6609396;27;34059;-81
2022/01/19 14:01:36;;;;;;;20.35;8.25;;;;;;;4.23;62.09;101519.81;6608960;27;35253;-80
2022/01/19 14:04:54;;;;;;;16.00;8.25;;;;;;;4.14;62.65;101517.81;6607125;27;34566;-85
2022/01/19 14:07:56;;;;;;;17.95;8.57;;;;;;;4.04;63.06;101513.12;6607932;27;34102;-81
2022/01/19 14:11:03;;;;;;;24.02;8.32;;;;;;;3.89;64.40;101505.34;6608485;27;33566;-81
2022/01/19 14:14:19;;;;;;;18.17;8.48;;;;;;;3.81;64.03;101506.75;6613493;27;34082;-81
2022/01/19 14:17:29;;;;;;;21.12;8.88;;;;;;;3.75;64.45;101498.34;6612137;27;33934;-81
2022/01/19 14:20:31;;;;;;;19.98;8.65;;;;;;;3.69;64.58;101504.09;6606032;26;34400;-81
2022/01/19 14:23:36;;;;;;;21.40;9.10;;;;;;;3.53;65.77;101502.44;6607175;27;33852;-81
2022/01/19 14:26:58;;;;;;;19.17;9.18;;;;;;;3.58;64.79;101491.50;6618704;27;33902;-80
2022/01/19 14:30:23;;;;;;;20.20;9.23;;;;;;;3.45;65.87;101488.81;6610189;27;33860;-81
2022/01/19 14:33:26;;;;;;;26.25;9.25;;;;;;;3.36;66.18;101492.97;6616639;27;34128;-78
2022/01/19 14:36:29;;;;;;;24.37;9.23;;;;;;;3.32;65.88;101472.81;6610053;27;34218;-79
2022/01/19 14:39:46;;;;;;;23.15;9.40;;;;;;;3.41;65.90;101472.19;6608068;27;34089;-79
2022/01/19 14:42:51;;;;;;;21.92;8.68;;;;;;;3.30;66.34;101468.56;6607302;27;33885;-80
2022/01/19 14:46:04;;;;;;;19.50;8.35;;;;;;;3.25;66.69;101466.22;6607075;27;33883;-80
2022/01/19 14:49:08;;;;;;;18.48;8.85;;;;;;;3.34;67.25;101448.78;6607366;27;33880;-80
2022/01/19 14:52:12;;;;;;;24.92;8.90;;;;;;;3.21;67.76;101448.75;6605359;27;33602;-81
2022/01/19 14:55:36;;;;;;;20.48;8.65;;;;;;;3.16;68.87;101459.72;6605040;27;33636;-80
2022/01/19 14:59:12;;;;;;;20.00;8.48;;;;;;;3.11;69.65;101453.00;6607273;27;33566;-80
2022/01/19 15:02:15;;;;;;;21.55;8.65;;;;;;;3.06;69.99;101449.78;6606948;27;33685;-79
2022/01/19 15:05:18;;;;;;;21.08;9.45;;;;;;;3.06;70.43;101455.94;6607299;27;33923;-80
2022/01/19 15:08:22;;;;;;;17.95;8.77;;;;;;;3.00;70.52;101440.41;6606233;27;34162;-81
2022/01/19 15:11:25;;;;;;;17.10;8.23;;;;;;;2.88;71.12;101439.41;6607930;27;33625;-81
2022/01/19 15:14:29;;;;;;;17.60;8.18;;;;;;;2.84;71.37;101437.09;6612454;27;33730;-81
2022/01/19 15:17:32;;;;;;;18.25;8.85;;;;;;;2.72;72.44;101436.94;6608158;27;35054;-81
2022/01/19 15:20:37;;;;;;;22.25;9.52;;;;;;;2.60;72.83;101428.91;6606952;27;33926;-81
2022/01/19 15:23:40;;;;;;;20.65;9.27;;;;;;;2.53;72.81;101430.25;6606466;26;33734;-81
2022/01/19 15:26:44;;;;;;;20.58;9.43;;;;;;;2.42;73.39;101426.47;6606988;27;33988;-81
2022/01/19 15:29:49;;;;;;;21.95;9.30;;;;;;;2.43;73.59;101416.72;6607474;27;34163;-81
2022/01/19 15:32:52;;;;;;;20.35;9.50;;;;;;;2.35;73.74;101416.37;6607375;27;33746;-82
2022/01/19 15:35:55;;;;;;;21.25;10.68;;;;;;;2.21;74.38;101422.56;6607080;27;34227;-81
2022/01/19 15:38:59;;;;;;;21.42;9.55;;;;;;;2.17;74.82;101416.59;6608246;27;33677;-82
2022/01/19 15:42:03;;;;;;;24.48;9.90;;;;;;;2.11;75.12;101416.16;6610202;27;33948;-82
2022/01/19 15:45:06;;;;;;;26.20;11.27;;;;;;;2.00;75.84;101408.84;6621939;27;35242;-81
2022/01/19 15:48:15;;;;;;;25.83;11.38;;;;;;;1.95;75.92;101401.16;6621567;27;35437;-81
2022/01/19 15:51:18;;;;;;;22.33;10.55;;;;;;;1.80;77.01;101394.16;6621414;27;34159;-81
2022/01/19 15:54:21;;;;;;;22.42;10.20;;;;;;;1.76;77.71;101390.84;6623612;27;34404;-81
2022/01/19 15:57:24;;;;;;;18.62;9.73;;;;;;;1.76;77.26;101393.50;6609910;27;34294;-81
2022/01/19 16:00:27;;;;;;;21.37;9.90;;;;;;;1.71;77.37;101386.78;6608827;27;33763;-80
2022/01/19 16:03:30;;;;;;;18.27;9.60;;;;;;;1.61;78.14;101385.63;6610983;27;34856;-80
2022/01/19 16:06:35;;;;;;;19.60;10.32;;;;;;;1.48;78.56;101391.72;6613428;27;34298;-81
2022/01/19 16:09:38;;;;;;;21.00;10.75;;;;;;;1.42;79.12;101386.78;6616437;27;34297;-81
2022/01/19 16:12:40;;;;;;;25.75;11.35;;;;;;;1.35;79.59;101385.47;6611579;27;34893;-81
2022/01/19 16:15:44;;;;;;;25.02;12.45;;;;;;;1.27;79.85;101387.72;6609787;27;34541;-81
2022/01/19 16:18:47;;;;;;;22.33;11.40;;;;;;;1.18;80.27;101388.28;6612935;27;34493;-81
2022/01/19 16:26:06;;;;;;;24.48;12.90;;;;;;;1.15;80.88;101383.16;6609748;26;34645;-81
2022/01/19 16:28:55;;;;;;;25.15;13.50;;;;;;;0.98;81.71;101365.59;6610288;27;33541;-81
2022/01/19 16:31:58;;;;;;;26.00;11.85;;;;;;;0.90;81.97;101353.66;6614230;27;35227;-79
2022/01/19 16:35:02;;;;;;;28.02;12.63;;;;;;;0.85;82.19;101362.84;6612869;27;33903;-80
2022/01/19 16:38:06;;;;;;;25.02;12.30;;;;;;;0.75;82.55;101359.88;6611056;27;34096;-80
2022/01/19 16:41:11;;;;;;;27.73;12.70;;;;;;;0.69;82.98;101352.28;6612604;27;34092;-79
2022/01/19 16:44:16;;;;;;;23.15;12.07;;;;;;;0.65;83.39;101359.56;6620284;27;34456;-79
2022/01/19 16:47:21;;;;;;;30.33;13.60;;;;;;;0.65;83.41;101348.97;6621249;26;34071;-79
2022/01/19 16:50:26;;;;;;;29.02;13.52;;;;;;;0.61;83.97;101352.72;6619179;27;35362;-79
2022/01/19 16:53:32;;;;;;;28.90;14.10;;;;;;;0.58;84.25;101347.59;6614325;27;34328;-81
2022/01/19 16:56:35;;;;;;;29.45;13.80;;;;;;;0.60;84.27;101345.72;6607901;27;34009;-81
2022/01/19 16:59:38;;;;;;;34.33;14.43;;;;;;;0.52;84.42;101350.59;6611876;27;35156;-82
